Time;durP1;ratioP1;P1;durP2;ratioP2;P2;SDS_P1;SDS_P2;PMS_P1;PMS_P2;Temp;Humidity;BMP_temperature;BMP_pressure;BME280_temperature;BME280_humidity;BME280_pressure;Samples;Min_cycle;Max_cycle;Signal;HPM_P1;HPM_P2
2023/08/09 00:00:11;;;;;;;1.60;0.80;;;;;;;26.10;42.93;101015.06;5068497;28;20041;-56
2023/08/09 00:02:39;;;;;;;2.20;0.70;;;;;;;26.10;42.91;101009.63;5066932;28;20041;-56
2023/08/09 00:05:06;;;;;;;1.70;0.73;;;;;;;26.10;42.80;101010.47;5065531;28;20056;-56
2023/08/09 00:07:34;;;;;;;1.60;0.77;;;;;;;26.09;42.90;101008.78;5068646;28;20484;-58
2023/08/09 00:10:01;;;;;;;1.70;0.82;;;;;;;26.09;43.11;101005.19;5068139;28;20040;-58
2023/08/09 00:12:29;;;;;;;1.95;0.95;;;;;;;26.09;43.02;101006.06;5066792;28;20055;-58
2023/08/09 00:14:56;;;;;;;1.40;0.60;;;;;;;26.08;42.81;101007.06;5065903;28;20045;-58
2023/08/09 00:17:23;;;;;;;1.50;0.70;;;;;;;26.09;42.88;101006.06;5068488;28;20036;-58
2023/08/09 00:19:51;;;;;;;1.75;1.02;;;;;;;26.10;42.59;101006.91;5068108;28;20063;-58
2023/08/09 00:22:18;;;;;;;2.40;0.80;;;;;;;26.08;42.92;101009.78;5066551;28;20059;-59
2023/08/09 00:24:45;;;;;;;1.30;0.60;;;;;;;26.10;43.02;101015.06;5065401;28;20057;-58
2023/08/09 00:27:13;;;;;;;1.48;0.85;;;;;;;26.09;42.77;101019.66;5068253;28;20052;-56
2023/08/09 00:29:40;;;;;;;1.35;0.68;;;;;;;26.09;42.75;101022.34;5067007;28;20408;-56
2023/08/09 00:32:08;;;;;;;1.92;0.90;;;;;;;26.08;42.88;101014.38;5066403;28;20075;-56
2023/08/09 00:34:35;;;;;;;1.35;0.70;;;;;;;26.09;42.66;101030.50;5064639;28;20045;-56
2023/08/09 00:37:03;;;;;;;2.35;1.05;;;;;;;26.09;42.82;101022.34;5068453;28;20059;-56
2023/08/09 00:39:30;;;;;;;1.80;1.05;;;;;;;26.08;42.85;101039.63;5071338;28;20040;-56
2023/08/09 00:41:58;;;;;;;1.92;0.80;;;;;;;26.09;42.68;101040.47;5066365;28;20053;-56
2023/08/09 00:44:25;;;;;;;2.28;0.80;;;;;;;26.08;42.64;101038.78;5064695;28;20493;-56
2023/08/09 00:46:52;;;;;;;1.35;0.70;;;;;;;26.08;42.67;101038.78;5066918;28;20075;-57
2023/08/09 00:49:20;;;;;;;2.20;0.90;;;;;;;26.08;42.67;101042.34;5067684;28;20052;-58
2023/08/09 00:51:48;;;;;;;1.77;0.80;;;;;;;26.09;42.63;101037.75;5064797;28;20416;-58
2023/08/09 00:54:17;;;;;;;1.40;0.60;;;;;;;26.09;42.64;101040.47;5063639;28;20520;-58
2023/08/09 00:56:45;;;;;;;1.48;0.70;;;;;;;26.09;42.62;101044.06;5067860;28;20048;-58
2023/08/09 00:59:13;;;;;;;1.83;0.82;;;;;;;26.08;42.63;101036.91;5067125;28;20056;-58
2023/08/09 01:01:40;;;;;;;1.33;0.57;;;;;;;26.08;42.67;101039.63;5066043;28;20048;-58
2023/08/09 01:04:08;;;;;;;1.55;0.80;;;;;;;26.07;42.63;101043.38;5063822;28;20052;-58
2023/08/09 01:06:49;;;;;;;1.52;0.80;;;;;;;26.08;42.58;101044.22;5067858;28;20048;-58
2023/08/09 01:09:37;;;;;;;1.55;0.60;;;;;;;26.08;42.55;101039.63;5068254;28;20045;-58
2023/08/09 01:12:10;;;;;;;2.45;1.10;;;;;;;26.06;42.42;101041.69;5064502;28;20053;-58
2023/08/09 01:14:42;;;;;;;1.27;0.70;;;;;;;26.08;42.69;101036.91;5066273;28;20496;-58
2023/08/09 01:17:13;;;;;;;2.45;0.88;;;;;;;26.07;42.51;101037.94;5069583;28;20060;-56
2023/08/09 01:19:48;;;;;;;1.80;0.80;;;;;;;26.07;42.51;101037.09;5063844;28;20041;-56
2023/08/09 01:22:20;;;;;;;1.42;0.70;;;;;;;26.07;42.56;101037.94;5063200;28;20052;-56
2023/08/09 01:24:48;;;;;;;1.90;0.90;;;;;;;26.07;42.51;101037.94;5066979;28;20055;-56
2023/08/09 01:27:16;;;;;;;1.73;0.70;;;;;;;26.07;42.60;101040.66;5065812;28;20500;-56
2023/08/09 01:29:44;;;;;;;1.42;0.63;;;;;;;26.07;42.53;101040.66;5063632;28;20053;-56
2023/08/09 01:32:12;;;;;;;2.35;0.88;;;;;;;26.06;42.39;101030.84;5067296;28;20044;-56
2023/08/09 01:34:40;;;;;;;2.03;1.10;;;;;;;26.07;42.60;101032.50;5065311;28;20497;-56
2023/08/09 01:37:28;;;;;;;1.60;0.60;;;;;;;26.06;42.54;101033.53;5064854;28;20055;-56
2023/08/09 01:40:01;;;;;;;1.65;0.60;;;;;;;26.06;42.52;101025.41;5070883;28;20045;-56
2023/08/09 01:42:29;;;;;;;;;;;;;;;26.04;42.59;101035.56;5066401;28;20049;-56
2023/08/09 01:44:57;;;;;;;1.33;0.52;;;;;;;26.06;42.51;101033.53;5064576;28;19927;-56
2023/08/09 01:47:25;;;;;;;2.08;0.90;;;;;;;26.07;42.58;101023.53;5064362;28;20045;-58
2023/08/09 01:49:53;;;;;;;2.03;0.90;;;;;;;26.06;42.56;101022.69;5067138;28;20523;-58
2023/08/09 01:52:21;;;;;;;1.17;0.47;;;;;;;26.05;42.57;101021.00;5067059;28;20476;-59
2023/08/09 01:54:48;;;;;;;3.70;0.88;;;;;;;26.06;42.46;101019.97;5058372;28;20500;-58
2023/08/09 01:57:15;;;;;;;1.65;0.70;;;;;;;26.06;42.48;101030.00;5067061;28;20056;-56
2023/08/09 01:59:44;;;;;;;1.42;0.68;;;;;;;26.06;42.56;101024.56;5065811;28;20052;-56
2023/08/09 02:02:11;;;;;;;1.80;0.80;;;;;;;26.06;42.55;101019.13;5064949;28;20526;-56
2023/08/09 02:04:40;;;;;;;1.45;0.70;;;;;;;26.06;42.53;101013.72;5064424;28;20048;-56
2023/08/09 02:07:07;;;;;;;1.20;0.50;;;;;;;26.05;42.47;100998.44;5063323;28;20500;-58
2023/08/09 02:09:35;;;;;;;2.05;0.85;;;;;;;26.05;42.60;100999.31;5067395;28;20497;-58
2023/08/09 02:12:02;;;;;;;0.95;0.50;;;;;;;26.06;42.55;100994.72;5069908;28;20516;-58
2023/08/09 02:14:30;;;;;;;1.88;0.73;;;;;;;26.04;42.60;100992.16;5064131;28;20068;-58
2023/08/09 02:16:59;;;;;;;1.38;0.50;;;;;;;26.05;42.55;100974.88;5062761;28;20048;-56
2023/08/09 02:19:27;;;;;;;2.63;0.80;;;;;;;26.05;42.65;100976.72;5070555;28;20048;-56
2023/08/09 02:21:54;;;;;;;1.52;0.60;;;;;;;26.05;42.44;100977.59;5068019;28;20420;-56
2023/08/09 02:24:23;;;;;;;1.20;0.65;;;;;;;26.04;42.62;100973.16;5069119;28;20047;-56
2023/08/09 02:26:51;;;;;;;1.50;0.70;;;;;;;26.05;42.52;100971.28;5068763;28;20504;-57
2023/08/09 02:29:18;;;;;;;1.42;0.65;;;;;;;26.05;42.64;100963.16;5069410;28;20053;-58
2023/08/09 02:31:46;;;;;;;1.83;0.90;;;;;;;26.05;42.60;100971.28;5069079;28;20044;-58
2023/08/09 02:34:14;;;;;;;1.80;0.70;;;;;;;26.05;42.61;100971.28;5063230;28;20048;-59
2023/08/09 02:36:41;;;;;;;1.75;0.90;;;;;;;26.05;42.64;100968.59;5059921;28;20055;-58
2023/08/09 02:39:09;;;;;;;1.90;1.00;;;;;;;26.04;42.53;100973.16;5073779;28;20511;-56
2023/08/09 02:41:41;;;;;;;1.80;0.80;;;;;;;26.04;42.54;100967.75;5067739;28;20055;-56
2023/08/09 02:44:09;;;;;;;2.50;0.90;;;;;;;26.04;42.60;100967.75;5065653;28;20064;-56
2023/08/09 02:46:38;;;;;;;1.55;0.70;;;;;;;26.05;42.47;100965.88;5068190;28;20060;-56
2023/08/09 02:49:07;;;;;;;1.55;0.65;;;;;;;26.03;42.47;100968.75;5070196;28;20040;-56
2023/08/09 02:51:35;;;;;;;1.65;0.57;;;;;;;26.04;42.57;100969.59;5068493;28;20048;-56
2023/08/09 02:54:04;;;;;;;1.48;0.70;;;;;;;26.04;42.58;100978.59;5066718;28;20056;-56
2023/08/09 02:56:33;;;;;;;1.50;0.60;;;;;;;26.04;42.56;100994.03;5068174;28;20075;-56
2023/08/09 02:59:00;;;;;;;1.15;0.50;;;;;;;26.03;42.51;100998.59;5070002;28;20044;-58
2023/08/09 03:01:29;;;;;;;1.83;0.70;;;;;;;26.04;42.59;101003.00;5068451;28;20037;-58
2023/08/09 03:03:58;;;;;;;1.73;0.60;;;;;;;26.03;42.48;101009.47;5068238;28;20522;-58
2023/08/09 03:06:25;;;;;;;1.17;0.60;;;;;;;26.03;42.42;101014.03;5062967;28;20523;-58
2023/08/09 03:08:53;;;;;;;1.77;0.82;;;;;;;26.03;42.35;101025.75;5073251;28;20059;-58
2023/08/09 03:11:23;;;;;;;1.55;0.80;;;;;;;26.03;42.43;101036.59;5068325;28;20440;-58
2023/08/09 03:13:51;;;;;;;2.03;1.05;;;;;;;26.03;42.43;101039.31;5064964;28;20053;-58
2023/08/09 03:16:19;;;;;;;1.63;0.80;;;;;;;26.04;42.23;101046.41;5068635;28;20049;-58
2023/08/09 03:18:48;;;;;;;2.60;1.23;;;;;;;26.04;42.34;101059.13;5068433;28;20048;-56
2023/08/09 03:21:16;;;;;;;1.95;0.75;;;;;;;26.05;42.34;101075.25;5066657;28;20064;-56
2023/08/09 03:23:44;;;;;;;1.17;0.73;;;;;;;26.03;42.33;101074.56;5065213;28;20060;-56
2023/08/09 03:26:11;;;;;;;1.65;0.77;;;;;;;26.03;42.22;101071.00;5067711;28;20504;-56
2023/08/09 03:28:42;;;;;;;1.38;0.52;;;;;;;26.03;42.29;101081.88;5069593;28;20099;-56
2023/08/09 03:31:12;;;;;;;1.88;0.80;;;;;;;26.03;42.21;101082.72;5066580;28;20393;-56
2023/08/09 03:33:40;;;;;;;1.80;0.90;;;;;;;26.03;42.11;101080.00;5066007;28;20504;-56
2023/08/09 03:36:08;;;;;;;1.58;0.70;;;;;;;26.02;41.85;101075.59;5069107;28;20041;-56
2023/08/09 03:38:35;;;;;;;1.48;0.85;;;;;;;26.03;42.08;101088.13;5068865;28;20055;-59
2023/08/09 03:41:02;;;;;;;1.50;0.60;;;;;;;26.03;42.14;101088.13;5068449;28;20044;-58
2023/08/09 03:43:31;;;;;;;1.48;0.65;;;;;;;26.02;42.09;101096.47;5065756;28;20497;-58
2023/08/09 03:45:58;;;;;;;2.60;0.98;;;;;;;26.03;42.05;101104.41;5067615;28;20523;-58
2023/08/09 03:48:27;;;;;;;1.80;0.70;;;;;;;26.02;41.96;101107.31;5065950;28;20048;-56
2023/08/09 03:50:54;;;;;;;1.70;0.90;;;;;;;26.03;42.05;101111.72;5061551;28;20056;-56
2023/08/09 03:53:22;;;;;;;1.67;0.70;;;;;;;26.03;41.98;101109.00;5059848;28;20064;-56
2023/08/09 03:55:49;;;;;;;1.45;0.70;;;;;;;26.02;42.02;101100.03;5067559;28;20056;-56
2023/08/09 03:58:17;;;;;;;1.63;0.75;;;;;;;26.01;42.15;101095.63;5065895;28;20049;-56
2023/08/09 04:00:44;;;;;;;2.05;0.75;;;;;;;26.01;42.07;101090.19;5068984;28;20040;-56
2023/08/09 04:03:12;;;;;;;1.83;0.80;;;;;;;26.01;42.09;101071.19;5065478;28;20048;-56
2023/08/09 04:05:39;;;;;;;1.42;0.70;;;;;;;26.01;42.07;101059.47;5067453;28;20053;-56
2023/08/09 04:08:07;;;;;;;1.48;0.73;;;;;;;26.00;42.22;101050.50;5066167;28;20059;-56
2023/08/09 04:10:36;;;;;;;1.77;0.73;;;;;;;26.00;42.10;101039.63;5060313;28;20505;-56
2023/08/09 04:13:03;;;;;;;1.90;0.88;;;;;;;26.00;42.09;101041.50;5061697;28;20048;-56
2023/08/09 04:15:30;;;;;;;1.85;1.00;;;;;;;26.00;42.26;101039.63;5068681;28;20048;-56
2023/08/09 04:17:58;;;;;;;1.80;0.85;;;;;;;26.00;42.11;101044.22;5065955;28;20503;-56
2023/08/09 04:20:26;;;;;;;2.58;0.95;;;;;;;26.00;42.16;101045.06;5061348;28;20056;-56
2023/08/09 04:23:00;;;;;;;1.60;0.70;;;;;;;26.00;42.44;101044.22;5071705;28;20051;-56
2023/08/09 04:25:27;;;;;;;1.30;0.70;;;;;;;25.99;42.16;101045.25;5068331;28;20052;-56
2023/08/09 04:27:56;;;;;;;1.30;0.55;;;;;;;25.99;42.17;101042.53;5066809;28;20044;-56
2023/08/09 04:30:24;;;;;;;1.55;0.68;;;;;;;25.99;42.24;101042.53;5064895;28;20037;-56
2023/08/09 04:32:55;;;;;;;1.77;0.70;;;;;;;26.00;42.23;101044.22;5066889;28;20416;-56
2023/08/09 04:35:23;;;;;;;2.83;0.90;;;;;;;25.99;42.10;101043.38;5068018;28;20538;-56
2023/08/09 04:37:50;;;;;;;0.95;0.50;;;;;;;25.98;42.32;101052.53;5066478;28;20052;-56
2023/08/09 04:40:18;;;;;;;2.05;0.75;;;;;;;25.98;42.16;101063.41;5064239;28;20409;-56
2023/08/09 04:42:47;;;;;;;1.98;0.82;;;;;;;25.99;42.13;101069.66;5067802;28;20416;-56
2023/08/09 04:45:16;;;;;;;1.73;0.95;;;;;;;25.98;42.18;101074.25;5068223;28;20052;-56
2023/08/09 04:47:43;;;;;;;1.20;0.60;;;;;;;25.98;42.13;101076.97;5066463;28;20060;-58
2023/08/09 04:50:12;;;;;;;1.58;0.57;;;;;;;25.99;42.15;101077.81;5063942;28;20041;-58
2023/08/09 04:52:41;;;;;;;1.48;0.60;;;;;;;25.99;42.20;101075.94;5060002;28;20045;-58
2023/08/09 04:55:11;;;;;;;1.40;0.80;;;;;;;25.98;42.16;101085.09;5067360;28;20051;-58
2023/08/09 04:57:38;;;;;;;2.00;0.85;;;;;;;25.98;42.18;101071.53;5066237;28;20404;-58
2023/08/09 05:00:08;;;;;;;1.60;0.70;;;;;;;25.99;42.06;101085.94;5064503;28;20056;-59
2023/08/09 05:02:36;;;;;;;1.08;0.47;;;;;;;25.98;42.11;101085.09;5067833;28;20052;-58
2023/08/09 05:05:08;;;;;;;1.08;0.52;;;;;;;25.98;42.11;101087.81;5066861;28;20048;-58
2023/08/09 05:07:37;;;;;;;1.83;0.90;;;;;;;25.97;41.98;101091.56;5065866;28;20055;-56
2023/08/09 05:10:06;;;;;;;2.47;0.90;;;;;;;25.96;41.89;101089.81;5066001;28;20053;-56
2023/08/09 05:12:34;;;;;;;2.05;0.82;;;;;;;25.97;41.95;101094.25;5067576;28;20484;-56
2023/08/09 05:15:03;;;;;;;1.92;1.00;;;;;;;25.97;41.81;101099.69;5066025;28;20045;-56
2023/08/09 05:17:31;;;;;;;1.90;0.80;;;;;;;25.97;41.98;101094.25;5065580;28;20048;-58
2023/08/09 05:19:58;;;;;;;1.25;0.60;;;;;;;25.97;41.86;101091.56;5066072;28;20056;-58
2023/08/09 05:22:26;;;;;;;1.75;0.88;;;;;;;25.98;41.94;101095.09;5067387;28;20051;-58
2023/08/09 05:24:53;;;;;;;1.50;0.60;;;;;;;25.97;42.10;101088.84;5064621;28;20052;-58
2023/08/09 05:27:20;;;;;;;2.00;0.80;;;;;;;25.96;42.11;101087.13;5065118;28;20408;-58
2023/08/09 05:29:48;;;;;;;1.63;0.75;;;;;;;25.97;42.18;101091.56;5066202;28;20106;-58
2023/08/09 05:32:15;;;;;;;2.10;0.77;;;;;;;25.96;42.02;101092.53;5067412;28;20404;-58
2023/08/09 05:34:43;;;;;;;1.80;0.85;;;;;;;25.96;41.97;101100.69;5065744;28;20048;-58
2023/08/09 05:37:10;;;;;;;2.17;0.88;;;;;;;25.96;41.97;101114.25;5065606;28;20052;-56
2023/08/09 05:39:38;;;;;;;1.60;0.63;;;;;;;25.97;42.03;101109.66;5066159;28;20045;-56
2023/08/09 05:42:05;;;;;;;2.78;1.10;;;;;;;25.96;42.01;101111.53;5067303;28;20040;-56
2023/08/09 05:44:34;;;;;;;1.80;0.80;;;;;;;25.96;42.17;101113.41;5066106;28;20049;-56
2023/08/09 05:47:02;;;;;;;1.63;0.80;;;;;;;25.96;42.08;101114.25;5068849;28;20048;-56
2023/08/09 05:49:30;;;;;;;1.35;0.63;;;;;;;25.96;42.20;101108.81;5069888;28;20409;-56
2023/08/09 05:51:57;;;;;;;2.30;1.02;;;;;;;25.96;42.35;101107.97;5071470;28;20041;-56
2023/08/09 05:54:25;;;;;;;1.95;0.80;;;;;;;25.96;42.17;101106.09;5069676;28;20055;-56
2023/08/09 05:56:52;;;;;;;1.77;0.82;;;;;;;25.96;42.24;101108.81;5068294;28;20048;-58
2023/08/09 05:59:20;;;;;;;1.73;0.75;;;;;;;25.96;42.36;101102.53;5069664;28;20056;-56
2023/08/09 06:01:49;;;;;;;1.85;0.80;;;;;;;25.95;42.24;101117.13;5071239;28;20055;-56
2023/08/09 06:04:16;;;;;;;1.92;0.70;;;;;;;25.95;42.20;101120.69;5069430;28;20056;-57
2023/08/09 06:06:45;;;;;;;2.08;0.90;;;;;;;25.96;42.20;101127.81;5069786;28;20052;-56
2023/08/09 06:09:12;;;;;;;1.40;0.68;;;;;;;25.96;42.26;101133.22;5070682;28;20424;-58
2023/08/09 06:11:57;;;;;;;1.67;0.60;;;;;;;25.96;42.38;101130.53;5070003;28;20114;-58
2023/08/09 06:14:25;;;;;;;2.47;1.20;;;;;;;25.96;42.22;101129.69;5069035;28;20052;-58
2023/08/09 06:16:53;;;;;;;1.67;0.80;;;;;;;25.96;42.38;101143.25;5068432;28;20052;-57
2023/08/09 06:19:20;;;;;;;1.65;0.70;;;;;;;25.96;42.28;101145.94;5070593;28;20051;-58
2023/08/09 06:21:48;;;;;;;2.28;1.00;;;;;;;25.96;42.36;101144.09;5069640;28;20423;-58
2023/08/09 06:24:15;;;;;;;1.90;0.77;;;;;;;25.96;42.35;101145.94;5068825;28;20052;-58
2023/08/09 06:26:43;;;;;;;1.40;0.73;;;;;;;25.95;42.43;101150.53;5068153;28;20409;-58
2023/08/09 06:29:10;;;;;;;2.35;0.90;;;;;;;25.95;42.39;101158.66;5070641;28;20040;-56
2023/08/09 06:31:38;;;;;;;1.40;0.80;;;;;;;25.96;42.32;101156.81;5068421;28;20056;-56
2023/08/09 06:34:06;;;;;;;1.88;0.88;;;;;;;25.95;42.51;101152.41;5068577;28;20048;-56
2023/08/09 06:36:34;;;;;;;1.90;0.80;;;;;;;25.96;42.44;101154.94;5067865;28;20053;-56
2023/08/09 06:39:02;;;;;;;2.05;0.88;;;;;;;25.96;42.39;101151.38;5070319;28;20044;-58
2023/08/09 06:41:30;;;;;;;3.05;0.98;;;;;;;25.95;42.36;101136.13;5069915;28;20055;-58
2023/08/09 06:43:57;;;;;;;2.25;0.85;;;;;;;25.96;42.26;101137.81;5070550;28;20055;-58
2023/08/09 06:46:25;;;;;;;2.40;0.70;;;;;;;25.95;42.26;101139.69;5067945;28;20531;-58
2023/08/09 06:48:52;;;;;;;2.40;0.90;;;;;;;25.95;42.26;101136.97;5070368;28;20040;-56
2023/08/09 06:51:21;;;;;;;1.60;0.70;;;;;;;25.96;42.29;101133.22;5068807;28;20036;-56
2023/08/09 06:53:48;;;;;;;1.80;0.80;;;;;;;25.96;42.23;101132.38;5071139;28;20052;-56
2023/08/09 06:56:16;;;;;;;1.88;0.93;;;;;;;25.95;42.33;101128.00;5067868;28;20051;-56
2023/08/09 06:58:43;;;;;;;2.08;1.00;;;;;;;25.95;42.39;101128.84;5069864;28;20527;-56
2023/08/09 07:01:11;;;;;;;2.10;0.70;;;;;;;25.96;42.42;101129.69;5068603;28;20044;-56
2023/08/09 07:03:39;;;;;;;2.53;0.80;;;;;;;25.95;42.41;101134.25;5062641;28;20049;-56
2023/08/09 07:06:06;;;;;;;1.90;1.00;;;;;;;25.95;42.40;101134.25;5069756;28;20060;-56
2023/08/09 07:08:34;;;;;;;1.83;0.75;;;;;;;25.96;42.32;101129.69;5069835;28;20048;-56
2023/08/09 07:11:01;;;;;;;1.98;0.82;;;;;;;25.95;42.36;101131.53;5068241;28;20048;-56
2023/08/09 07:13:29;;;;;;;2.03;0.90;;;;;;;25.95;42.37;101123.41;5067709;28;20036;-56
2023/08/09 07:15:57;;;;;;;1.77;0.80;;;;;;;25.96;42.35;101129.69;5067676;28;20051;-56
2023/08/09 07:18:25;;;;;;;1.70;0.70;;;;;;;25.95;42.25;101117.13;5071910;28;20051;-58
2023/08/09 07:20:53;;;;;;;1.88;0.80;;;;;;;25.96;42.38;101121.53;5068000;28;20498;-58
2023/08/09 07:23:20;;;;;;;2.35;0.85;;;;;;;25.95;42.12;101117.97;5068843;28;20048;-58
2023/08/09 07:26:07;;;;;;;1.60;0.60;;;;;;;25.96;42.10;101114.25;5065307;28;20044;-59
2023/08/09 07:28:35;;;;;;;1.30;0.60;;;;;;;25.95;42.09;101107.13;5069288;28;20052;-56
2023/08/09 07:31:02;;;;;;;2.03;0.70;;;;;;;25.95;42.22;101117.13;5067884;28;20052;-56
2023/08/09 07:33:29;;;;;;;2.83;1.00;;;;;;;25.95;42.13;101115.25;5065898;28;20048;-56
2023/08/09 07:35:57;;;;;;;2.00;1.00;;;;;;;25.95;42.12;101115.25;5068973;28;20421;-56
2023/08/09 07:38:24;;;;;;;1.33;0.60;;;;;;;25.95;42.17;101117.97;5069098;28;20049;-55
2023/08/09 07:40:51;;;;;;;1.40;0.70;;;;;;;25.95;42.27;101120.69;5067331;28;20060;-56
2023/08/09 07:43:19;;;;;;;2.38;1.20;;;;;;;25.95;42.21;101119.84;5064771;28;20488;-56
2023/08/09 07:45:48;;;;;;;2.38;0.93;;;;;;;25.95;42.13;101128.84;5068954;28;20056;-56
2023/08/09 07:48:16;;;;;;;3.70;1.10;;;;;;;25.95;42.13;101123.41;5068844;28;20041;-58
2023/08/09 07:50:43;;;;;;;1.77;0.90;;;;;;;25.95;42.22;101123.41;5067123;28;20045;-58
2023/08/09 07:53:12;;;;;;;2.63;1.00;;;;;;;25.96;42.27;101129.69;5065747;28;20056;-58
2023/08/09 07:55:39;;;;;;;1.90;0.70;;;;;;;25.95;42.21;101126.13;5068703;28;20071;-58
2023/08/09 07:58:07;;;;;;;1.33;0.63;;;;;;;25.95;42.36;101120.69;5068192;28;20048;-57
2023/08/09 08:00:34;;;;;;;2.42;0.75;;;;;;;25.94;42.36;101116.28;5066807;28;20047;-56
2023/08/09 08:03:15;;;;;;;2.40;0.90;;;;;;;25.94;42.37;101116.28;5067607;28;20044;-56
2023/08/09 08:05:42;;;;;;;1.92;0.90;;;;;;;25.96;42.33;101110.69;5068435;28;20048;-56
2023/08/09 08:08:14;;;;;;;1.88;0.90;;;;;;;25.95;42.42;101104.41;5069337;28;20055;-58
2023/08/09 08:10:42;;;;;;;1.85;0.90;;;;;;;25.96;42.50;101105.25;5064858;28;20053;-58
2023/08/09 08:13:11;;;;;;;1.50;0.70;;;;;;;25.96;42.52;101103.38;5067932;28;20036;-58
2023/08/09 08:15:38;;;;;;;2.45;0.85;;;;;;;25.96;42.51;101097.13;5068370;28;20420;-58
2023/08/09 08:18:06;;;;;;;1.80;0.90;;;;;;;25.95;42.52;101101.72;5066992;28;20045;-58
2023/08/09 08:20:34;;;;;;;2.20;1.15;;;;;;;25.94;42.34;101097.31;5064669;28;20060;-58
2023/08/09 08:23:01;;;;;;;1.90;0.90;;;;;;;25.95;42.51;101100.88;5068001;28;20045;-56
2023/08/09 08:25:29;;;;;;;2.38;1.10;;;;;;;25.96;42.33;101107.97;5068093;28;20503;-56
2023/08/09 08:27:56;;;;;;;1.63;0.77;;;;;;;25.96;42.47;101100.69;5066574;28;20045;-56
2023/08/09 08:30:23;;;;;;;2.05;0.93;;;;;;;25.97;42.50;101106.94;5064565;28;20049;-56
2023/08/09 08:32:53;;;;;;;2.08;1.00;;;;;;;25.96;42.36;101118.81;5067671;28;20055;-56
2023/08/09 08:35:21;;;;;;;2.35;1.00;;;;;;;25.96;42.40;101125.09;5068015;28;20060;-56
2023/08/09 08:37:49;;;;;;;1.42;0.82;;;;;;;25.97;42.35;101117.81;5059901;28;20075;-56
2023/08/09 08:40:18;;;;;;;2.85;1.00;;;;;;;25.96;42.47;101125.09;5059300;28;20049;-56
2023/08/09 08:42:47;;;;;;;1.73;0.65;;;;;;;25.97;42.44;101134.94;5063232;28;20045;-56
2023/08/09 08:45:15;;;;;;;2.17;1.00;;;;;;;25.96;42.40;101127.81;5067800;28;20059;-56
2023/08/09 08:47:44;;;;;;;2.03;0.85;;;;;;;25.96;42.46;101141.38;5066218;28;20053;-58
2023/08/09 08:50:14;;;;;;;1.65;0.70;;;;;;;25.97;42.50;101136.78;5064703;28;20048;-58
2023/08/09 08:52:47;;;;;;;2.50;1.17;;;;;;;25.96;42.24;101130.53;5067686;28;20044;-58
2023/08/09 08:55:15;;;;;;;3.22;0.88;;;;;;;25.96;42.43;101130.53;5066515;28;20412;-58
2023/08/09 08:57:46;;;;;;;2.60;1.30;;;;;;;25.97;42.30;101129.53;5060624;28;20516;-58
2023/08/09 09:00:16;;;;;;;2.13;0.90;;;;;;;25.97;42.44;101134.06;5068019;28;20060;-58
2023/08/09 09:02:54;;;;;;;1.73;0.88;;;;;;;25.97;42.48;101125.94;5067908;28;20047;-58
2023/08/09 09:05:22;;;;;;;2.35;1.00;;;;;;;25.97;42.28;101118.69;5066315;28;20459;-58
2023/08/09 09:07:51;;;;;;;2.05;1.15;;;;;;;25.97;42.53;101115.09;5064017;28;20048;-58
2023/08/09 09:10:20;;;;;;;1.67;0.80;;;;;;;25.97;42.38;101110.53;5067581;28;20051;-59
2023/08/09 09:12:57;;;;;;;1.77;0.80;;;;;;;25.97;42.54;101115.09;5067300;28;20036;-58
2023/08/09 09:15:27;;;;;;;1.58;0.70;;;;;;;25.96;42.47;101114.25;5060640;28;20052;-58
2023/08/09 09:17:55;;;;;;;2.50;1.23;;;;;;;25.97;42.56;101109.66;5067511;28;20049;-58
2023/08/09 09:20:33;;;;;;;1.92;0.98;;;;;;;25.97;42.52;101115.97;5067386;28;20049;-58
2023/08/09 09:23:01;;;;;;;2.47;1.00;;;;;;;25.97;42.46;101112.38;5067059;28;20408;-58
2023/08/09 09:25:29;;;;;;;1.73;0.80;;;;;;;25.97;42.57;101115.09;5059228;28;20049;-58
2023/08/09 09:27:57;;;;;;;2.65;0.90;;;;;;;25.97;42.64;101102.41;5067549;28;20054;-58
2023/08/09 09:30:29;;;;;;;2.15;0.93;;;;;;;25.96;42.35;101100.69;5067588;28;20040;-58
2023/08/09 09:32:58;;;;;;;;;;;;;;;25.95;42.61;101103.56;5061317;28;20055;-58
2023/08/09 09:35:32;;;;;;;1.98;0.88;;;;;;;25.96;42.53;101106.09;5067274;28;19921;-58
2023/08/09 09:38:03;;;;;;;2.08;0.93;;;;;;;25.97;42.76;101105.13;5066177;28;20048;-56
2023/08/09 09:40:33;;;;;;;1.67;0.80;;;;;;;25.96;42.72;101100.69;5065912;28;20052;-56
2023/08/09 09:43:04;;;;;;;2.17;0.85;;;;;;;25.97;42.61;101102.41;5064877;28;20043;-56
2023/08/09 09:45:32;;;;;;;2.20;1.00;;;;;;;25.96;42.71;101097.97;5066359;28;20496;-56
2023/08/09 09:48:04;;;;;;;3.25;1.17;;;;;;;25.97;42.83;101094.25;5067241;28;20415;-58
2023/08/09 09:50:33;;;;;;;2.13;1.00;;;;;;;25.97;42.84;101102.41;5065791;28;20049;-58
2023/08/09 09:53:02;;;;;;;2.00;0.82;;;;;;;25.96;42.90;101089.81;5058532;28;20056;-58
2023/08/09 09:55:30;;;;;;;1.75;0.82;;;;;;;25.97;42.75;101102.41;5062257;28;20052;-59
2023/08/09 09:57:58;;;;;;;1.83;1.00;;;;;;;25.97;43.08;101091.56;5067135;28;20075;-56
2023/08/09 10:00:32;;;;;;;3.28;0.82;;;;;;;25.97;42.83;101091.56;5065358;28;20045;-56
2023/08/09 10:03:01;;;;;;;2.00;0.90;;;;;;;25.97;42.96;101086.13;5064247;28;20041;-56
2023/08/09 10:05:37;;;;;;;1.90;0.90;;;;;;;25.97;42.70;101088.84;5067025;28;20111;-56
2023/08/09 10:08:07;;;;;;;2.03;0.90;;;;;;;25.97;42.84;101083.41;5065800;28;20437;-56
2023/08/09 10:10:43;;;;;;;1.52;0.75;;;;;;;25.97;42.89;101074.41;5063556;28;20057;-56
2023/08/09 10:13:18;;;;;;;2.20;0.90;;;;;;;25.97;42.84;101077.97;5061690;28;20048;-56
2023/08/09 10:15:51;;;;;;;2.03;1.00;;;;;;;25.97;42.96;101080.69;5066541;28;20488;-56
2023/08/09 10:18:24;;;;;;;2.80;1.42;;;;;;;25.96;43.04;101078.97;5065305;28;20051;-56
2023/08/09 10:20:55;;;;;;;2.75;0.93;;;;;;;25.98;42.86;101078.81;5065836;28;20492;-56
2023/08/09 10:23:25;;;;;;;1.73;0.90;;;;;;;25.98;43.08;101073.41;5067096;28;20048;-56
2023/08/09 10:25:54;;;;;;;1.27;0.63;;;;;;;25.97;42.96;101072.56;5065426;28;20486;-56
2023/08/09 10:28:45;;;;;;;1.90;0.80;;;;;;;25.98;42.95;101073.41;5063627;28;20052;-56
2023/08/09 10:31:14;;;;;;;2.00;1.10;;;;;;;25.97;43.02;101079.81;5065933;28;20483;-56
2023/08/09 10:34:06;;;;;;;1.92;0.82;;;;;;;25.97;43.10;101075.28;5068906;28;20056;-58
2023/08/09 10:36:34;;;;;;;1.73;0.85;;;;;;;25.97;43.04;101069.84;5068342;28;20053;-59
2023/08/09 10:39:10;;;;;;;1.60;0.70;;;;;;;25.98;42.92;101068.81;5073843;28;20048;-56
2023/08/09 10:41:37;;;;;;;1.80;0.80;;;;;;;25.97;43.08;101067.13;5068807;28;20045;-56
2023/08/09 10:44:05;;;;;;;1.98;1.10;;;;;;;25.97;43.14;101061.72;5066939;28;20041;-56
2023/08/09 10:46:34;;;;;;;3.13;0.90;;;;;;;25.98;43.24;101055.25;5069565;28;20048;-56
2023/08/09 10:49:03;;;;;;;2.38;1.00;;;;;;;25.98;43.17;101065.25;5070260;28;20040;-58
2023/08/09 10:51:30;;;;;;;2.03;0.70;;;;;;;25.98;43.22;101060.69;5068539;28;20405;-58
2023/08/09 10:54:03;;;;;;;1.42;0.70;;;;;;;25.98;43.23;101059.84;5066165;28;20056;-58
2023/08/09 10:56:35;;;;;;;1.63;0.73;;;;;;;25.97;43.35;101061.72;5073525;28;20404;-58
2023/08/09 10:59:15;;;;;;;1.65;0.77;;;;;;;25.98;43.10;101066.09;5069521;28;20507;-56
2023/08/09 11:01:43;;;;;;;1.98;1.05;;;;;;;25.97;43.20;101061.72;5063516;28;20048;-56
2023/08/09 11:04:17;;;;;;;3.50;0.88;;;;;;;25.97;43.24;101053.56;5069701;28;20381;-56
2023/08/09 11:06:50;;;;;;;1.85;1.05;;;;;;;25.98;43.27;101049.00;5066493;28;20057;-56
2023/08/09 11:09:19;;;;;;;1.60;0.77;;;;;;;25.98;43.27;101054.41;5068460;28;20045;-58
2023/08/09 11:11:48;;;;;;;2.03;0.82;;;;;;;25.97;43.19;101040.00;5066431;28;20045;-58
2023/08/09 11:14:18;;;;;;;2.22;1.00;;;;;;;25.97;43.26;101045.44;5069678;28;20041;-58
2023/08/09 11:16:46;;;;;;;1.98;0.88;;;;;;;25.98;43.25;101049.84;5069341;28;20041;-58
2023/08/09 11:19:15;;;;;;;1.75;0.80;;;;;;;25.98;43.20;101036.25;5067984;28;20051;-56
2023/08/09 11:21:59;;;;;;;2.40;1.15;;;;;;;25.97;43.38;101036.41;5069148;28;20047;-56
2023/08/09 11:24:27;;;;;;;2.40;1.20;;;;;;;25.98;43.31;101032.72;5069493;28;20040;-56
2023/08/09 11:26:57;;;;;;;2.00;0.88;;;;;;;25.98;43.28;101033.56;5067996;28;20056;-57
2023/08/09 11:29:26;;;;;;;1.50;0.70;;;;;;;25.98;43.29;101030.00;5065782;28;20412;-58
2023/08/09 11:31:57;;;;;;;2.72;1.08;;;;;;;25.97;43.26;101018.31;5072585;28;20044;-58
2023/08/09 11:34:25;;;;;;;1.90;0.90;;;;;;;25.97;43.26;101018.31;5068925;28;20037;-58